Time;durP1;ratioP1;P1;durP2;ratioP2;P2;SDS_P1;SDS_P2;PMS_P1;PMS_P2;Temp;Humidity;BMP_temperature;BMP_pressure;BME280_temperature;BME280_humidity;BME280_pressure;Samples;Min_cycle;Max_cycle;Signal;HPM_P1;HPM_P2
2022/03/16 00:22:45;;;;;;;7.97;6.05;;;;;;;;;;4063408;32;20605;-64
2022/03/16 00:25:11;;;;;;;6.40;5.30;;;;;;;;;;4119196;34;20222;-65
2022/03/16 00:27:37;;;;;;;5.07;4.18;;;;;;;;;;4125154;34;20104;-65
2022/03/16 00:30:04;;;;;;;5.35;4.22;;;;;;;;;;4122599;34;20124;-66
2022/03/16 00:32:30;;;;;;;6.28;5.25;;;;;;;;;;4122329;34;20134;-66
2022/03/16 00:34:56;;;;;;;6.47;4.10;;;;;;;;;;4122552;34;20146;-67
2022/03/16 00:37:22;;;;;;;7.07;4.10;;;;;;;;;;4122360;34;20122;-66
2022/03/16 00:39:48;;;;;;;5.53;3.95;;;;;;;;;;4122455;34;20544;-67
2022/03/16 00:42:14;;;;;;;6.03;4.20;;;;;;;;;;4122604;34;20119;-66
2022/03/16 00:44:40;;;;;;;6.72;4.45;;;;;;;;;;4122777;34;20130;-66
2022/03/16 00:47:06;;;;;;;6.12;4.37;;;;;;;;;;4121020;34;20104;-66
2022/03/16 00:49:32;;;;;;;5.57;3.90;;;;;;;;;;4122465;34;20108;-66
2022/03/16 00:51:59;;;;;;;9.50;4.80;;;;;;;;;;4122377;34;20108;-66
2022/03/16 00:54:25;;;;;;;7.82;4.80;;;;;;;;;;4122077;34;20116;-62
2022/03/16 00:56:51;;;;;;;6.40;4.10;;;;;;;;;;4124431;34;20111;-62
2022/03/16 00:59:17;;;;;;;5.72;4.22;;;;;;;;;;4123056;34;20127;-61
2022/03/16 01:01:43;;;;;;;5.70;4.57;;;;;;;;;;4123276;34;20108;-63
2022/03/16 01:04:09;;;;;;;6.93;4.60;;;;;;;;;;4125181;34;20111;-62
2022/03/16 01:06:35;;;;;;;6.30;4.60;;;;;;;;;;4137809;34;20104;-63
2022/03/16 01:09:01;;;;;;;7.53;4.57;;;;;;;;;;4137771;34;20515;-65
2022/03/16 01:11:27;;;;;;;5.47;4.47;;;;;;;;;;4137587;34;20147;-65
2022/03/16 01:13:53;;;;;;;5.05;4.20;;;;;;;;;;4125164;34;20092;-64
2022/03/16 01:16:19;;;;;;;9.38;4.80;;;;;;;;;;4137962;34;20218;-64
2022/03/16 01:18:45;;;;;;;7.90;4.80;;;;;;;;;;4137511;34;20111;-64
2022/03/16 01:21:11;;;;;;;5.45;4.37;;;;;;;;;;4137593;34;20211;-68
2022/03/16 01:23:37;;;;;;;5.55;4.30;;;;;;;;;;4137587;34;20556;-68
2022/03/16 01:26:04;;;;;;;8.05;5.35;;;;;;;;;;4137612;34;20112;-69
2022/03/16 01:28:31;;;;;;;6.40;4.57;;;;;;;;;;4137442;34;20088;-66
2022/03/16 01:31:01;;;;;;;7.75;5.22;;;;;;;;;;4137537;34;20314;-68
2022/03/16 01:33:28;;;;;;;6.18;5.10;;;;;;;;;;4125310;34;20083;-68
2022/03/16 01:35:54;;;;;;;6.28;5.50;;;;;;;;;;4125343;34;20228;-66
2022/03/16 01:38:20;;;;;;;7.82;5.53;;;;;;;;;;4137533;34;20472;-67
2022/03/16 01:40:47;;;;;;;7.82;5.95;;;;;;;;;;4137505;34;20131;-67
2022/03/16 01:43:13;;;;;;;6.90;5.43;;;;;;;;;;4137806;34;20218;-66
2022/03/16 01:45:46;;;;;;;7.05;5.45;;;;;;;;;;4137661;34;20460;-67
2022/03/16 01:48:11;;;;;;;7.78;5.00;;;;;;;;;;4137537;34;20119;-66
2022/03/16 01:50:37;;;;;;;7.00;5.30;;;;;;;;;;4137389;34;20129;-66
2022/03/16 01:53:03;;;;;;;8.15;5.40;;;;;;;;;;4125050;34;20110;-66
2022/03/16 01:55:29;;;;;;;7.93;5.18;;;;;;;;;;4137274;34;20115;-66
2022/03/16 01:57:55;;;;;;;9.48;5.35;;;;;;;;;;4137367;34;20114;-66
2022/03/16 02:00:22;;;;;;;7.65;4.80;;;;;;;;;;4124912;34;20619;-66
2022/03/16 02:02:48;;;;;;;7.50;4.57;;;;;;;;;;4124994;34;20123;-66
2022/03/16 02:05:14;;;;;;;10.07;5.35;;;;;;;;;;4136385;34;20134;-67
2022/03/16 02:07:43;;;;;;;7.68;5.18;;;;;;;;;;4137312;34;20108;-67
2022/03/16 02:10:09;;;;;;;7.37;5.05;;;;;;;;;;4137176;34;20476;-67
2022/03/16 02:12:52;;;;;;;7.65;4.90;;;;;;;;;;4137186;34;20200;-67
2022/03/16 02:15:19;;;;;;;7.07;4.82;;;;;;;;;;4137125;34;20100;-66
2022/03/16 02:17:45;;;;;;;8.52;5.18;;;;;;;;;;4124577;34;20118;-67
2022/03/16 02:20:12;;;;;;;8.65;5.25;;;;;;;;;;4124717;34;20119;-67
2022/03/16 02:22:55;;;;;;;8.38;5.12;;;;;;;;;;4137199;34;20127;-66
2022/03/16 02:25:21;;;;;;;7.53;5.12;;;;;;;;;;4139097;34;20805;-67
2022/03/16 02:27:47;;;;;;;8.48;5.12;;;;;;;;;;4125331;34;20115;-66
2022/03/16 02:30:14;;;;;;;8.63;5.22;;;;;;;;;;4137180;34;20217;-66
2022/03/16 02:32:39;;;;;;;6.70;4.85;;;;;;;;;;4138252;34;20107;-66
2022/03/16 02:35:06;;;;;;;6.93;4.80;;;;;;;;;;4138043;34;20456;-65
2022/03/16 02:37:36;;;;;;;7.97;5.18;;;;;;;;;;4137231;34;20216;-66
2022/03/16 02:40:02;;;;;;;7.40;5.37;;;;;;;;;;4139874;34;20147;-66
2022/03/16 02:42:28;;;;;;;7.25;5.22;;;;;;;;;;4139528;34;20112;-66
2022/03/16 02:44:54;;;;;;;9.85;5.40;;;;;;;;;;4149574;34;20719;-66
2022/03/16 02:47:20;;;;;;;7.62;5.72;;;;;;;;;;4144680;34;20107;-66
2022/03/16 02:49:46;;;;;;;7.30;5.37;;;;;;;;;;4137759;34;20162;-65
2022/03/16 02:52:12;;;;;;;6.82;5.12;;;;;;;;;;4137876;34;20245;-65
2022/03/16 02:54:38;;;;;;;7.35;4.85;;;;;;;;;;4150330;34;20131;-66
2022/03/16 02:57:04;;;;;;;6.82;5.50;;;;;;;;;;4137586;34;20171;-65
2022/03/16 02:59:30;;;;;;;7.87;5.80;;;;;;;;;;4150237;34;20102;-65
2022/03/16 03:01:56;;;;;;;7.45;5.47;;;;;;;;;;4137731;34;20130;-66
2022/03/16 03:04:22;;;;;;;7.12;5.60;;;;;;;;;;4150168;34;20127;-66
2022/03/16 03:06:48;;;;;;;7.97;5.00;;;;;;;;;;4150313;34;20101;-67
2022/03/16 03:09:14;;;;;;;8.15;5.32;;;;;;;;;;4150407;34;20547;-67
2022/03/16 03:11:40;;;;;;;8.75;5.43;;;;;;;;;;4149944;34;20130;-67
2022/03/16 03:14:06;;;;;;;9.77;5.82;;;;;;;;;;4150088;34;20795;-67
2022/03/16 03:16:32;;;;;;;7.82;5.53;;;;;;;;;;4149827;34;20195;-67
2022/03/16 03:18:58;;;;;;;8.02;5.37;;;;;;;;;;4149466;34;20141;-67
2022/03/16 03:21:24;;;;;;;9.60;5.78;;;;;;;;;;4137381;34;20223;-67
2022/03/16 03:23:50;;;;;;;9.77;5.75;;;;;;;;;;4145559;34;20496;-67
2022/03/16 03:26:16;;;;;;;8.18;5.68;;;;;;;;;;4136653;34;20126;-66
2022/03/16 03:28:42;;;;;;;6.97;5.60;;;;;;;;;;4136298;34;20098;-65
2022/03/16 03:31:08;;;;;;;8.55;5.75;;;;;;;;;;4135959;34;20099;-65
2022/03/16 03:33:34;;;;;;;7.75;5.18;;;;;;;;;;4136316;34;20119;-65
2022/03/16 03:36:00;;;;;;;7.82;5.15;;;;;;;;;;4136578;34;20098;-73
2022/03/16 03:38:26;;;;;;;9.68;5.50;;;;;;;;;;4123498;34;20123;-68
2022/03/16 03:40:52;;;;;;;9.15;5.78;;;;;;;;;;4123893;34;20120;-67
2022/03/16 03:43:18;;;;;;;8.55;5.60;;;;;;;;;;4135914;34;20100;-67
2022/03/16 03:45:44;;;;;;;8.70;6.25;;;;;;;;;;4136389;34;20604;-68
2022/03/16 03:48:10;;;;;;;6.85;5.47;;;;;;;;;;4136380;34;20130;-68
2022/03/16 03:50:36;;;;;;;6.28;5.18;;;;;;;;;;4123724;34;20135;-67
2022/03/16 03:53:02;;;;;;;8.23;6.03;;;;;;;;;;4136558;34;20141;-68
2022/03/16 03:55:28;;;;;;;8.88;6.05;;;;;;;;;;4136250;34;20216;-68
2022/03/16 03:57:56;;;;;;;11.25;5.82;;;;;;;;;;4123675;34;20106;-68
2022/03/16 04:00:22;;;;;;;8.02;6.05;;;;;;;;;;4136371;34;20135;-67
2022/03/16 04:02:49;;;;;;;9.02;6.12;;;;;;;;;;4136186;34;20123;-67
2022/03/16 04:05:19;;;;;;;8.45;5.72;;;;;;;;;;4123731;34;20107;-67
2022/03/16 04:07:46;;;;;;;7.68;5.60;;;;;;;;;;4112638;34;20115;-67
2022/03/16 04:10:12;;;;;;;8.65;5.97;;;;;;;;;;4133011;34;20107;-67
2022/03/16 04:12:38;;;;;;;10.07;5.62;;;;;;;;;;4134905;34;20117;-67
2022/03/16 04:15:05;;;;;;;9.15;6.00;;;;;;;;;;4137279;34;20127;-67
2022/03/16 04:17:31;;;;;;;8.35;5.72;;;;;;;;;;4125216;34;20253;-65
2022/03/16 04:19:57;;;;;;;8.38;5.62;;;;;;;;;;4131327;34;20151;-64
2022/03/16 04:22:27;;;;;;;10.70;6.15;;;;;;;;;;4131103;34;20217;-64
2022/03/16 04:24:54;;;;;;;8.98;6.10;;;;;;;;;;4128864;34;20196;-65
2022/03/16 04:27:20;;;;;;;6.22;5.32;;;;;;;;;;4141917;34;20115;-63
2022/03/16 04:29:47;;;;;;;8.98;5.95;;;;;;;;;;4144340;34;20182;-62
2022/03/16 04:32:13;;;;;;;6.90;5.45;;;;;;;;;;4131770;34;20099;-63
2022/03/16 04:34:39;;;;;;;7.85;6.03;;;;;;;;;;4151218;34;20488;-62
2022/03/16 04:37:05;;;;;;;9.55;5.78;;;;;;;;;;4150346;34;20211;-62
2022/03/16 04:39:31;;;;;;;6.65;5.55;;;;;;;;;;4138672;34;20460;-62
2022/03/16 04:41:57;;;;;;;8.30;4.95;;;;;;;;;;4138455;34;20625;-62
2022/03/16 04:44:24;;;;;;;10.52;5.72;;;;;;;;;;4138831;34;20162;-63
2022/03/16 04:46:50;;;;;;;10.13;5.87;;;;;;;;;;4138772;34;20111;-62
2022/03/16 04:49:16;;;;;;;8.48;5.28;;;;;;;;;;4151521;34;20135;-63
2022/03/16 04:51:42;;;;;;;8.93;5.65;;;;;;;;;;4151371;34;20103;-63
2022/03/16 04:54:08;;;;;;;8.40;5.82;;;;;;;;;;4138631;34;20106;-67
2022/03/16 04:56:35;;;;;;;6.68;5.22;;;;;;;;;;4127624;34;20122;-65
2022/03/16 04:59:04;;;;;;;9.20;5.70;;;;;;;;;;4151087;34;20121;-66
2022/03/16 05:01:30;;;;;;;6.10;5.32;;;;;;;;;;4138847;34;20291;-66
2022/03/16 05:03:57;;;;;;;6.32;5.28;;;;;;;;;;4138519;34;20095;-65
2022/03/16 05:06:23;;;;;;;6.25;5.57;;;;;;;;;;4151269;34;20110;-65
2022/03/16 05:08:50;;;;;;;6.90;5.28;;;;;;;;;;4151146;34;20120;-64
2022/03/16 05:11:16;;;;;;;9.10;5.78;;;;;;;;;;4151273;34;20111;-65
2022/03/16 05:13:43;;;;;;;10.70;6.00;;;;;;;;;;4138404;34;20111;-65
2022/03/16 05:16:09;;;;;;;7.03;5.47;;;;;;;;;;4151116;34;20191;-70
2022/03/16 05:18:35;;;;;;;8.35;5.55;;;;;;;;;;4138802;34;20107;-69
2022/03/16 05:21:07;;;;;;;8.65;5.43;;;;;;;;;;4138618;34;20123;-68
2022/03/16 05:23:34;;;;;;;8.07;5.18;;;;;;;;;;4147956;34;20104;-68
2022/03/16 05:26:00;;;;;;;9.23;5.37;;;;;;;;;;4125423;34;20103;-68
2022/03/16 05:28:26;;;;;;;7.22;5.72;;;;;;;;;;4137752;34;20119;-67
2022/03/16 05:30:52;;;;;;;6.78;5.43;;;;;;;;;;4137544;34;20127;-68
2022/03/16 05:33:19;;;;;;;8.38;5.37;;;;;;;;;;4137438;34;20119;-67
2022/03/16 05:35:45;;;;;;;7.10;5.47;;;;;;;;;;4137526;34;20282;-67
2022/03/16 05:38:14;;;;;;;13.50;8.13;;;;;;;;;;4125208;34;20196;-67
2022/03/16 05:40:41;;;;;;;14.20;7.90;;;;;;;;;;4137518;34;20115;-67
2022/03/16 05:43:09;;;;;;;19.73;12.82;;;;;;;;;;4137385;34;20090;-67
2022/03/16 05:45:35;;;;;;;16.15;9.20;;;;;;;;;;4125010;34;20103;-67
2022/03/16 05:48:02;;;;;;;13.77;7.78;;;;;;;;;;4114020;34;20131;-67
2022/03/16 05:50:28;;;;;;;19.10;11.00;;;;;;;;;;4124736;34;20621;-67
2022/03/16 05:52:56;;;;;;;18.98;11.00;;;;;;;;;;4124841;34;20132;-63
2022/03/16 05:55:22;;;;;;;18.80;13.50;;;;;;;;;;4124842;34;20583;-64
2022/03/16 05:57:49;;;;;;;21.33;13.18;;;;;;;;;;4137365;34;20095;-64
2022/03/16 06:00:20;;;;;;;15.43;10.10;;;;;;;;;;4137138;34;20239;-63
2022/03/16 06:02:47;;;;;;;15.73;11.35;;;;;;;;;;4135920;34;20104;-63
2022/03/16 06:05:13;;;;;;;18.90;10.70;;;;;;;;;;4137219;34;20195;-64
2022/03/16 06:07:40;;;;;;;12.23;9.32;;;;;;;;;;4125623;34;20134;-67
2022/03/16 06:10:07;;;;;;;9.90;8.15;;;;;;;;;;4129169;34;20091;-69
2022/03/16 06:12:33;;;;;;;15.00;9.35;;;;;;;;;;4128022;34;20096;-67
2022/03/16 06:14:59;;;;;;;10.45;7.50;;;;;;;;;;4137195;34;20122;-66
2022/03/16 06:17:25;;;;;;;11.90;7.30;;;;;;;;;;4137477;34;20449;-68
2022/03/16 06:19:51;;;;;;;10.18;7.03;;;;;;;;;;4124638;34;20107;-68
2022/03/16 06:22:17;;;;;;;11.23;7.62;;;;;;;;;;4137285;34;20221;-68
2022/03/16 06:24:43;;;;;;;10.32;8.73;;;;;;;;;;4136906;34;20433;-68
2022/03/16 06:27:09;;;;;;;14.45;11.02;;;;;;;;;;4124409;34;20115;-69
2022/03/16 06:29:35;;;;;;;12.88;8.63;;;;;;;;;;4135778;34;20192;-68
2022/03/16 06:32:01;;;;;;;13.50;11.32;;;;;;;;;;4136988;34;20240;-67
2022/03/16 06:34:28;;;;;;;16.77;14.60;;;;;;;;;;4137168;34;20678;-67
2022/03/16 06:36:54;;;;;;;20.40;13.23;;;;;;;;;;4124300;34;20154;-67
2022/03/16 06:39:20;;;;;;;18.42;13.55;;;;;;;;;;4136740;34;20107;-67
2022/03/16 06:41:47;;;;;;;16.08;10.63;;;;;;;;;;4136907;34;20140;-68
2022/03/16 06:44:13;;;;;;;28.73;10.82;;;;;;;;;;4136772;34;20196;-67
2022/03/16 06:46:39;;;;;;;14.90;7.07;;;;;;;;;;4124304;34;20117;-68
2022/03/16 06:49:05;;;;;;;9.00;5.22;;;;;;;;;;4137045;34;20418;-67
2022/03/16 06:51:31;;;;;;;12.98;7.47;;;;;;;;;;4123766;34;20201;-67
2022/03/16 06:53:57;;;;;;;9.07;6.37;;;;;;;;;;4136904;34;20137;-68
2022/03/16 06:56:23;;;;;;;8.90;5.37;;;;;;;;;;4136851;34;20116;-68
2022/03/16 06:58:49;;;;;;;5.87;4.12;;;;;;;;;;4136713;34;20113;-68
2022/03/16 07:01:15;;;;;;;7.05;4.82;;;;;;;;;;4136952;34;20111;-67
2022/03/16 07:03:41;;;;;;;10.13;4.78;;;;;;;;;;4124228;34;20117;-66
2022/03/16 07:06:08;;;;;;;7.80;5.45;;;;;;;;;;4136662;34;20232;-66
2022/03/16 07:08:34;;;;;;;9.38;5.30;;;;;;;;;;4136614;34;20514;-65
2022/03/16 07:11:01;;;;;;;8.30;5.15;;;;;;;;;;4137052;34;20096;-64
2022/03/16 07:13:26;;;;;;;10.52;5.32;;;;;;;;;;4136687;34;20109;-65
2022/03/16 07:15:52;;;;;;;7.78;5.45;;;;;;;;;;4136991;34;20452;-63
2022/03/16 07:18:20;;;;;;;22.85;9.15;;;;;;;;;;4124340;34;20187;-66
2022/03/16 07:20:47;;;;;;;7.35;4.90;;;;;;;;;;4136666;34;20161;-65
2022/03/16 07:23:15;;;;;;;11.77;5.85;;;;;;;;;;4136479;34;20215;-63
2022/03/16 07:25:46;;;;;;;10.38;5.43;;;;;;;;;;4136628;34;20460;-64
2022/03/16 07:28:13;;;;;;;10.40;6.07;;;;;;;;;;4136595;34;20103;-66
2022/03/16 07:30:39;;;;;;;10.60;6.03;;;;;;;;;;4136592;34;20141;-66
2022/03/16 07:33:06;;;;;;;11.95;5.78;;;;;;;;;;4136465;34;20531;-64
2022/03/16 07:35:33;;;;;;;9.95;6.60;;;;;;;;;;4136780;34;20126;-63
2022/03/16 07:38:02;;;;;;;9.55;5.32;;;;;;;;;;4134339;34;20135;-63
2022/03/16 07:40:30;;;;;;;12.07;7.82;;;;;;;;;;4135221;34;20130;-61
2022/03/16 07:42:56;;;;;;;16.62;8.10;;;;;;;;;;4124162;34;20122;-62
2022/03/16 07:45:23;;;;;;;17.80;8.82;;;;;;;;;;4123101;34;20200;-62
2022/03/16 07:47:50;;;;;;;12.35;7.62;;;;;;;;;;4135531;34;20083;-61
2022/03/16 07:50:16;;;;;;;11.77;6.55;;;;;;;;;;4123729;34;20675;-61
2022/03/16 07:52:43;;;;;;;8.63;5.78;;;;;;;;;;4134882;34;20216;-62
2022/03/16 07:55:10;;;;;;;11.20;6.75;;;;;;;;;;4136132;34;20123;-62
2022/03/16 07:57:36;;;;;;;15.85;8.52;;;;;;;;;;4123310;34;20439;-62
2022/03/16 08:00:10;;;;;;;9.30;5.95;;;;;;;;;;4135352;34;20111;-62
2022/03/16 08:02:37;;;;;;;15.25;8.95;;;;;;;;;;4135909;34;20107;-63
2022/03/16 08:05:05;;;;;;;16.48;10.73;;;;;;;;;;4123344;34;20625;-63
2022/03/16 08:07:31;;;;;;;15.00;8.25;;;;;;;;;;4123294;34;20191;-67
2022/03/16 08:09:57;;;;;;;11.75;6.93;;;;;;;;;;4123764;34;20096;-66
2022/03/16 08:12:24;;;;;;;9.40;6.03;;;;;;;;;;4136119;34;20095;-66
2022/03/16 08:14:50;;;;;;;9.00;5.95;;;;;;;;;;4136052;34;20123;-65
2022/03/16 08:17:16;;;;;;;7.80;5.87;;;;;;;;;;4135564;34;20128;-66
2022/03/16 08:19:42;;;;;;;7.70;4.72;;;;;;;;;;4136132;34;20142;-65
2022/03/16 08:22:08;;;;;;;8.38;6.62;;;;;;;;;;4136008;34;20214;-64
2022/03/16 08:24:34;;;;;;;11.10;9.18;;;;;;;;;;4135890;34;20095;-63
2022/03/16 08:27:00;;;;;;;9.85;6.35;;;;;;;;;;4135585;34;20107;-65
2022/03/16 08:29:26;;;;;;;10.05;7.60;;;;;;;;;;4135836;34;20640;-64
2022/03/16 08:31:53;;;;;;;9.57;6.37;;;;;;;;;;4135737;34;20111;-65
2022/03/16 08:34:19;;;;;;;11.10;7.00;;;;;;;;;;4136003;34;20123;-64
2022/03/16 08:36:45;;;;;;;14.38;7.05;;;;;;;;;;4135681;34;20257;-63
2022/03/16 08:39:11;;;;;;;7.80;5.30;;;;;;;;;;4135792;34;20568;-64
2022/03/16 08:41:37;;;;;;;13.25;6.55;;;;;;;;;;4135230;34;20136;-64
2022/03/16 08:44:04;;;;;;;13.20;6.87;;;;;;;;;;4136059;34;20138;-67
2022/03/16 08:46:30;;;;;;;12.93;10.57;;;;;;;;;;4135663;34;20130;-64
2022/03/16 08:48:56;;;;;;;13.48;7.53;;;;;;;;;;4135929;34;20119;-63
2022/03/16 08:51:23;;;;;;;12.13;6.07;;;;;;;;;;4135441;34;20111;-66
2022/03/16 08:53:49;;;;;;;11.65;9.32;;;;;;;;;;4123072;34;20112;-66
2022/03/16 08:56:16;;;;;;;10.73;6.78;;;;;;;;;;4135683;34;20108;-66
2022/03/16 08:58:43;;;;;;;25.65;9.35;;;;;;;;;;4109835;34;20205;-65
2022/03/16 09:01:09;;;;;;;19.60;9.18;;;;;;;;;;4122225;34;20120;-66
2022/03/16 09:03:35;;;;;;;14.20;7.30;;;;;;;;;;4134728;34;20227;-65
2022/03/16 09:06:02;;;;;;;15.23;8.07;;;;;;;;;;4135284;34;20544;-66
2022/03/16 09:08:28;;;;;;;12.02;7.50;;;;;;;;;;4135235;34;20104;-66
2022/03/16 09:10:56;;;;;;;15.55;10.82;;;;;;;;;;4122983;34;20134;-67
2022/03/16 09:13:22;;;;;;;11.80;6.82;;;;;;;;;;4121980;34;20193;-65
2022/03/16 09:15:51;;;;;;;9.70;6.47;;;;;;;;;;4124840;34;20510;-68
2022/03/16 09:18:18;;;;;;;7.30;5.35;;;;;;;;;;4137399;34;20111;-67
2022/03/16 09:20:44;;;;;;;11.20;5.82;;;;;;;;;;4125127;34;20487;-66
2022/03/16 09:23:11;;;;;;;10.75;6.05;;;;;;;;;;4137169;34;20118;-64
2022/03/16 09:25:38;;;;;;;12.68;6.75;;;;;;;;;;4125057;34;20126;-67
2022/03/16 09:28:04;;;;;;;17.20;8.93;;;;;;;;;;4137277;34;20100;-67
2022/03/16 09:30:30;;;;;;;12.07;5.57;;;;;;;;;;4134840;34;20146;-69
2022/03/16 09:32:57;;;;;;;14.52;7.50;;;;;;;;;;4115412;34;20092;-67
2022/03/16 09:35:24;;;;;;;7.95;7.00;;;;;;;;;;4124112;34;20116;-66
2022/03/16 09:37:50;;;;;;;8.13;5.00;;;;;;;;;;4123707;34;20528;-64
2022/03/16 09:40:19;;;;;;;8.52;4.50;;;;;;;;;;4111380;34;20444;-64
2022/03/16 09:42:47;;;;;;;5.53;4.20;;;;;;;;;;4123498;34;20160;-65
2022/03/16 09:45:18;;;;;;;5.10;3.95;;;;;;;;;;4123950;34;20441;-66
2022/03/16 09:47:45;;;;;;;6.35;5.10;;;;;;;;;;4123590;34;20120;-64
2022/03/16 09:50:11;;;;;;;9.48;5.40;;;;;;;;;;4123795;34;20198;-66
2022/03/16 09:52:39;;;;;;;6.05;3.90;;;;;;;;;;4123503;34;20110;-62
2022/03/16 09:55:06;;;;;;;9.43;6.85;;;;;;;;;;4123575;34;20115;-62
2022/03/16 09:57:32;;;;;;;19.35;11.15;;;;;;;;;;4123491;34;20148;-63
2022/03/16 10:00:01;;;;;;;14.65;9.05;;;;;;;;;;4123885;34;20103;-63
2022/03/16 10:02:27;;;;;;;11.18;6.20;;;;;;;;;;4123405;34;20212;-62
2022/03/16 10:04:54;;;;;;;12.32;7.43;;;;;;;;;;4123773;34;20217;-61
2022/03/16 10:07:28;;;;;;;11.20;6.57;;;;;;;;;;4123132;34;20167;-62
2022/03/16 10:15:24;;;;;;;9.75;6.03;;;;;;;;;;4123617;34;20143;-63
2022/03/16 10:17:59;;;;;;;12.30;9.15;;;;;;;;;;4123619;34;20218;-63
2022/03/16 10:20:28;;;;;;;10.05;7.35;;;;;;;;;;4121106;34;20203;-63
2022/03/16 10:23:01;;;;;;;9.88;6.87;;;;;;;;;;4120423;34;20120;-63
2022/03/16 10:25:37;;;;;;;6.57;5.10;;;;;;;;;;4095127;34;20140;-67
2022/03/16 10:28:16;;;;;;;8.75;6.53;;;;;;;;;;4131050;34;20088;-68
2022/03/16 10:30:55;;;;;;;10.48;7.70;;;;;;;;;;4135286;34;20695;-67
2022/03/16 10:33:23;;;;;;;16.50;10.70;;;;;;;;;;4124536;34;20134;-66
2022/03/16 10:35:58;;;;;;;8.57;5.55;;;;;;;;;;4135197;34;20119;-63
2022/03/16 10:38:24;;;;;;;5.90;4.97;;;;;;;;;;4121112;34;20236;-64
2022/03/16 10:40:53;;;;;;;5.37;3.95;;;;;;;;;;4133931;34;20111;-63
2022/03/16 10:49:05;;;;;;;7.75;5.65;;;;;;;;;;4134366;34;20188;-66
2022/03/16 10:51:31;;;;;;;11.35;7.25;;;;;;;;;;4134424;34;20882;-63
2022/03/16 10:54:00;;;;;;;7.03;4.55;;;;;;;;;;4134097;34;20198;-65
2022/03/16 10:56:27;;;;;;;5.45;4.10;;;;;;;;;;4121714;34;20123;-65
2022/03/16 10:58:54;;;;;;;6.60;4.45;;;;;;;;;;4124753;34;20270;-61
2022/03/16 11:01:21;;;;;;;11.23;6.68;;;;;;;;;;4136808;34;20111;-62
2022/03/16 11:03:51;;;;;;;8.20;6.82;;;;;;;;;;4113151;34;20115;-62
2022/03/16 11:06:23;;;;;;;11.40;7.43;;;;;;;;;;4136792;34;20137;-62
2022/03/16 11:08:49;;;;;;;9.57;4.87;;;;;;;;;;4136867;34;20550;-62
2022/03/16 11:14:04;;;;;;;12.40;8.15;;;;;;;;;;4126086;34;20088;-62
2022/03/16 11:16:32;;;;;;;9.38;4.82;;;;;;;;;;4136512;34;20104;-62
2022/03/16 11:19:00;;;;;;;9.27;4.68;;;;;;;;;;4136706;34;20118;-63
2022/03/16 11:21:58;;;;;;;10.10;6.25;;;;;;;;;;4123982;34;20126;-63
2022/03/16 11:24:26;;;;;;;32.70;12.70;;;;;;;;;;4123668;34;20555;-64
2022/03/16 11:26:57;;;;;;;19.50;9.05;;;;;;;;;;4136783;34;20468;-62
2022/03/16 11:29:38;;;;;;;10.80;7.30;;;;;;;;;;4136579;34;20127;-63
2022/03/16 11:32:09;;;;;;;12.32;9.43;;;;;;;;;;4136841;34;20205;-63
2022/03/16 11:34:36;;;;;;;19.42;11.52;;;;;;;;;;4136649;34;20110;-61
2022/03/16 11:37:05;;;;;;;14.05;10.00;;;;;;;;;;4123889;34;20936;-61
2022/03/16 11:39:46;;;;;;;14.55;11.12;;;;;;;;;;4136488;34;20138;-63
2022/03/16 11:42:17;;;;;;;17.77;15.55;;;;;;;;;;4136242;34;20206;-61
2022/03/16 11:44:43;;;;;;;10.18;5.60;;;;;;;;;;4136475;34;20190;-63
2022/03/16 11:47:09;;;;;;;11.27;7.22;;;;;;;;;;4136294;34;20116;-64
2022/03/16 11:49:38;;;;;;;8.13;5.80;;;;;;;;;;4136316;34;21007;-62
2022/03/16 11:52:05;;;;;;;11.75;9.07;;;;;;;;;;4136455;34;20131;-62
2022/03/16 11:54:54;;;;;;;8.48;4.82;;;;;;;;;;4136233;34;20730;-61
2022/03/16 11:57:49;;;;;;;12.30;7.55;;;;;;;;;;4124415;34;20162;-62
2022/03/16 12:00:16;;;;;;;14.40;10.43;;;;;;;;;;4136235;34;20127;-63
2022/03/16 12:02:42;;;;;;;27.45;13.02;;;;;;;;;;4134874;34;20095;-65
2022/03/16 12:05:10;;;;;;;29.15;13.15;;;;;;;;;;4136485;34;20188;-63
2022/03/16 12:07:36;;;;;;;19.90;10.30;;;;;;;;;;4136094;34;20166;-63
2022/03/16 12:10:12;;;;;;;12.25;5.75;;;;;;;;;;4124066;34;20124;-63
2022/03/16 12:12:54;;;;;;;5.80;4.28;;;;;;;;;;4136184;34;20117;-62
2022/03/16 12:15:29;;;;;;;12.55;8.20;;;;;;;;;;4136108;34;20126;-62
2022/03/16 12:17:55;;;;;;;17.27;9.87;;;;;;;;;;4123514;34;20694;-61
2022/03/16 12:20:21;;;;;;;16.58;9.88;;;;;;;;;;4112736;34;20135;-63
2022/03/16 12:22:58;;;;;;;21.20;10.20;;;;;;;;;;4136303;34;20100;-62
2022/03/16 12:25:27;;;;;;;11.85;6.72;;;;;;;;;;4123539;34;20130;-62
2022/03/16 12:30:42;;;;;;;15.80;12.32;;;;;;;;;;4136079;34;20221;-67
2022/03/16 12:33:20;;;;;;;25.90;17.52;;;;;;;;;;4135931;34;20109;-68
2022/03/16 12:35:47;;;;;;;22.85;16.48;;;;;;;;;;4123928;34;20116;-67
2022/03/16 12:38:13;;;;;;;9.23;7.32;;;;;;;;;;4123400;34;20175;-65
2022/03/16 12:43:30;;;;;;;16.40;14.63;;;;;;;;;;4102584;34;20216;-68
2022/03/16 12:46:29;;;;;;;18.60;16.60;;;;;;;;;;4112921;34;20127;-66
2022/03/16 12:49:03;;;;;;;15.05;12.45;;;;;;;;;;4136043;34;20111;-64
2022/03/16 12:51:49;;;;;;;21.73;17.25;;;;;;;;;;4138074;34;20146;-62
2022/03/16 12:54:22;;;;;;;15.68;12.88;;;;;;;;;;4137804;34;20107;-62
2022/03/16 12:56:50;;;;;;;20.58;15.68;;;;;;;;;;4138218;34;20099;-64
2022/03/16 12:59:37;;;;;;;20.73;16.45;;;;;;;;;;4138017;34;20212;-62
2022/03/16 13:02:07;;;;;;;21.08;12.73;;;;;;;;;;4137777;34;20111;-63
2022/03/16 13:04:34;;;;;;;19.45;14.10;;;;;;;;;;4137864;34;20150;-63
2022/03/16 13:07:01;;;;;;;10.45;8.82;;;;;;;;;;4125685;34;20183;-62
2022/03/16 13:09:31;;;;;;;12.37;7.65;;;;;;;;;;4125448;34;20140;-63
2022/03/16 13:12:02;;;;;;;17.70;7.97;;;;;;;;;;4125477;34;20108;-64
2022/03/16 13:14:29;;;;;;;13.75;9.23;;;;;;;;;;4137621;34;20108;-64
2022/03/16 13:16:56;;;;;;;13.10;8.43;;;;;;;;;;4125436;34;20225;-64
2022/03/16 13:19:30;;;;;;;10.50;6.15;;;;;;;;;;4137649;34;20136;-64
2022/03/16 13:22:08;;;;;;;6.55;4.85;;;;;;;;;;4137684;34;20135;-64
2022/03/16 13:24:38;;;;;;;20.77;15.45;;;;;;;;;;4125402;34;20147;-63
2022/03/16 13:27:06;;;;;;;19.75;12.95;;;;;;;;;;4137709;34;20111;-64
2022/03/16 13:29:33;;;;;;;15.48;11.93;;;;;;;;;;4125130;34;20100;-64
2022/03/16 13:32:01;;;;;;;8.38;6.60;;;;;;;;;;4125134;34;20112;-65
2022/03/16 13:34:27;;;;;;;16.40;13.75;;;;;;;;;;4124963;34;20508;-65
2022/03/16 13:36:54;;;;;;;17.87;13.73;;;;;;;;;;4137604;34;20125;-66
2022/03/16 13:39:26;;;;;;;21.50;14.55;;;;;;;;;;4124859;34;20145;-66
2022/03/16 13:42:07;;;;;;;28.08;20.95;;;;;;;;;;4137312;34;20634;-62
2022/03/16 13:44:37;;;;;;;30.52;24.63;;;;;;;;;;4137396;34;20515;-65
2022/03/16 13:47:05;;;;;;;21.27;16.42;;;;;;;;;;4125062;34;20107;-63
2022/03/16 13:49:38;;;;;;;25.27;18.90;;;;;;;;;;4124891;34;20142;-61
2022/03/16 13:52:06;;;;;;;28.62;20.67;;;;;;;;;;4124913;34;20208;-66
2022/03/16 13:54:33;;;;;;;41.05;30.37;;;;;;;;;;4124819;34;20211;-64
2022/03/16 13:57:09;;;;;;;41.47;31.25;;;;;;;;;;4137215;34;20111;-64
2022/03/16 13:59:36;;;;;;;25.88;21.12;;;;;;;;;;4125008;34;20497;-64
2022/03/16 14:02:09;;;;;;;18.23;13.35;;;;;;;;;;4124830;34;20095;-63
2022/03/16 14:04:42;;;;;;;17.12;14.23;;;;;;;;;;4125098;34;20445;-62
2022/03/16 14:07:28;;;;;;;19.42;14.30;;;;;;;;;;4124903;34;20433;-63
2022/03/16 14:09:59;;;;;;;18.80;15.48;;;;;;;;;;4124824;34;20191;-63
2022/03/16 14:12:31;;;;;;;19.75;16.33;;;;;;;;;;4113606;34;20099;-64
2022/03/16 14:15:20;;;;;;;35.55;28.87;;;;;;;;;;4124788;34;20186;-63
2022/03/16 14:17:55;;;;;;;31.90;26.60;;;;;;;;;;4137129;34;20501;-64
2022/03/16 14:20:30;;;;;;;35.13;29.00;;;;;;;;;;4137215;34;20123;-64
2022/03/16 14:22:56;;;;;;;34.08;25.88;;;;;;;;;;4113244;34;20195;-64
2022/03/16 14:25:26;;;;;;;33.33;24.87;;;;;;;;;;4124468;34;20111;-65
2022/03/16 14:27:53;;;;;;;44.25;33.58;;;;;;;;;;4124748;34;20117;-65
2022/03/16 14:30:22;;;;;;;39.42;28.65;;;;;;;;;;4124507;34;20104;-66
2022/03/16 14:32:49;;;;;;;41.37;32.10;;;;;;;;;;4136751;34;20562;-65
2022/03/16 14:35:16;;;;;;;25.17;20.75;;;;;;;;;;4136893;34;20472;-61
2022/03/16 14:37:43;;;;;;;43.30;29.15;;;;;;;;;;4137017;34;20111;-62
2022/03/16 14:40:11;;;;;;;42.70;32.58;;;;;;;;;;4136944;34;20215;-63
2022/03/16 14:42:39;;;;;;;27.87;21.48;;;;;;;;;;4136851;34;20534;-64
2022/03/16 14:45:06;;;;;;;44.15;34.70;;;;;;;;;;4124535;34;20519;-65
2022/03/16 14:47:32;;;;;;;65.75;50.45;;;;;;;;;;4136999;34;20119;-68
2022/03/16 14:49:59;;;;;;;58.65;39.92;;;;;;;;;;4137163;34;20133;-69
2022/03/16 14:52:26;;;;;;;34.88;26.08;;;;;;;;;;4124557;34;20107;-69
2022/03/16 14:54:52;;;;;;;33.90;25.62;;;;;;;;;;4123418;34;20657;-62
2022/03/16 14:57:19;;;;;;;44.53;33.75;;;;;;;;;;4123348;34;20195;-63
2022/03/16 14:59:46;;;;;;;35.85;27.67;;;;;;;;;;4123363;34;20084;-61
2022/03/16 15:02:14;;;;;;;27.60;20.05;;;;;;;;;;4123541;34;20123;-61
2022/03/16 15:04:43;;;;;;;35.05;25.08;;;;;;;;;;4123352;34;20178;-61
2022/03/16 15:07:11;;;;;;;49.13;32.53;;;;;;;;;;4110995;34;20224;-61
2022/03/16 15:09:38;;;;;;;43.60;31.15;;;;;;;;;;4100081;34;20116;-61
2022/03/16 15:12:05;;;;;;;57.75;37.33;;;;;;;;;;4122693;34;20194;-66
2022/03/16 15:14:32;;;;;;;59.05;38.10;;;;;;;;;;4123297;34;20622;-64
2022/03/16 15:16:58;;;;;;;46.25;34.33;;;;;;;;;;4100059;34;20127;-61
2022/03/16 15:19:24;;;;;;;18.27;11.98;;;;;;;;;;4123282;34;20112;-63